Time;durP1;ratioP1;P1;durP2;ratioP2;P2;SDS_P1;SDS_P2;PMS_P1;PMS_P2;Temp;Humidity;BMP_temperature;BMP_pressure;BME280_temperature;BME280_humidity;BME280_pressure;Samples;Min_cycle;Max_cycle;Signal;HPM_P1;HPM_P2
2023/10/19 00:03:27;;;;;;;4.05;2.20;;;;;;;;;;10288103;28;20076;-66
2023/10/19 00:08:36;;;;;;;3.33;2.20;;;;;;;;;;10291406;28;20066;-66
2023/10/19 00:13:36;;;;;;;4.07;2.38;;;;;;;;;;10293975;28;20100;-66
2023/10/19 00:18:34;;;;;;;5.65;2.70;;;;;;;;;;10294619;28;20057;-66
2023/10/19 00:23:33;;;;;;;3.28;1.95;;;;;;;;;;10296164;28;20072;-66
2023/10/19 00:28:31;;;;;;;4.80;2.10;;;;;;;;;;10296721;28;20088;-66
2023/10/19 00:33:32;;;;;;;4.18;2.20;;;;;;;;;;10308084;28;20080;-66
2023/10/19 00:38:40;;;;;;;3.30;2.35;;;;;;;;;;10295358;28;20045;-66
2023/10/19 00:43:43;;;;;;;2.88;2.00;;;;;;;;;;10310852;28;20072;-65
2023/10/19 00:48:46;;;;;;;5.32;2.08;;;;;;;;;;10295882;28;20065;-66
2023/10/19 00:53:44;;;;;;;4.30;2.78;;;;;;;;;;10294931;28;20068;-65
2023/10/19 00:58:47;;;;;;;2.45;2.22;;;;;;;;;;10296044;28;20064;-66
2023/10/19 01:03:52;;;;;;;5.80;2.10;;;;;;;;;;10293838;28;20461;-66
2023/10/19 01:08:51;;;;;;;2.38;2.15;;;;;;;;;;10293191;28;20064;-65
2023/10/19 01:13:51;;;;;;;2.10;1.55;;;;;;;;;;10294645;28;20548;-66
2023/10/19 01:18:54;;;;;;;3.70;2.40;;;;;;;;;;10293990;28;20069;-66
2023/10/19 01:23:54;;;;;;;3.65;2.42;;;;;;;;;;10294232;28;20072;-65
2023/10/19 01:28:53;;;;;;;2.28;2.08;;;;;;;;;;10291835;28;20068;-66
2023/10/19 01:33:55;;;;;;;4.13;2.17;;;;;;;;;;10293728;28;20506;-65
2023/10/19 01:38:55;;;;;;;6.20;2.65;;;;;;;;;;10291953;28;20071;-65
2023/10/19 01:43:54;;;;;;;5.53;2.25;;;;;;;;;;10304771;28;20068;-66
2023/10/19 01:48:55;;;;;;;5.10;2.35;;;;;;;;;;10292873;28;20061;-66
2023/10/19 01:53:55;;;;;;;4.72;2.47;;;;;;;;;;10293433;28;20064;-66
2023/10/19 01:58:54;;;;;;;3.50;2.20;;;;;;;;;;10299303;28;20084;-66
2023/10/19 02:03:55;;;;;;;6.22;2.17;;;;;;;;;;10292660;28;20077;-66
2023/10/19 02:08:56;;;;;;;3.65;2.00;;;;;;;;;;10299165;28;20668;-66
2023/10/19 02:13:59;;;;;;;2.60;2.13;;;;;;;;;;10291060;28;20084;-66
2023/10/19 02:18:57;;;;;;;2.45;1.98;;;;;;;;;;10293054;28;20092;-66
2023/10/19 02:23:57;;;;;;;2.10;1.70;;;;;;;;;;10292369;28;20506;-66
2023/10/19 02:28:56;;;;;;;4.00;2.03;;;;;;;;;;10274408;28;20056;-66
2023/10/19 02:33:59;;;;;;;2.70;2.03;;;;;;;;;;10292254;28;20075;-65
2023/10/19 02:38:59;;;;;;;3.60;2.30;;;;;;;;;;10299883;28;20076;-65
2023/10/19 02:44:06;;;;;;;4.47;2.70;;;;;;;;;;10290103;28;20514;-66
2023/10/19 02:49:10;;;;;;;2.67;2.47;;;;;;;;;;10270279;28;20080;-66
2023/10/19 02:54:17;;;;;;;4.95;2.50;;;;;;;;;;10290875;28;20084;-66
2023/10/19 02:59:16;;;;;;;3.95;2.70;;;;;;;;;;10289415;28;20076;-66
2023/10/19 03:04:15;;;;;;;3.72;2.50;;;;;;;;;;10288401;28;20083;-66
2023/10/19 03:09:22;;;;;;;2.78;2.10;;;;;;;;;;10290959;28;20426;-66
2023/10/19 03:14:24;;;;;;;7.65;2.30;;;;;;;;;;10290639;28;20107;-66
2023/10/19 03:19:24;;;;;;;2.38;2.17;;;;;;;;;;10290217;28;20072;-66
2023/10/19 03:24:35;;;;;;;2.55;2.35;;;;;;;;;;10290238;28;20068;-65
2023/10/19 03:29:38;;;;;;;3.88;2.72;;;;;;;;;;10287803;28;20073;-65
2023/10/19 03:34:37;;;;;;;2.80;2.45;;;;;;;;;;10286363;28;20083;-65
2023/10/19 03:39:40;;;;;;;5.47;2.50;;;;;;;;;;10288628;28;20049;-65
2023/10/19 03:44:49;;;;;;;4.38;2.97;;;;;;;;;;10290766;28;20083;-65
2023/10/19 03:49:48;;;;;;;3.63;2.45;;;;;;;;;;10296061;28;20111;-66
2023/10/19 03:54:48;;;;;;;5.13;2.63;;;;;;;;;;10294421;28;20076;-66
2023/10/19 03:59:49;;;;;;;19.70;5.57;;;;;;;;;;10297632;28;20154;-66
2023/10/19 04:04:49;;;;;;;14.50;5.32;;;;;;;;;;10294719;28;20072;-65
2023/10/19 04:09:59;;;;;;;11.07;5.10;;;;;;;;;;10294406;28;20471;-66
2023/10/19 04:14:58;;;;;;;12.93;4.40;;;;;;;;;;10297095;28;20158;-65
2023/10/19 04:19:57;;;;;;;12.85;5.68;;;;;;;;;;10296723;28;20518;-66
2023/10/19 04:24:58;;;;;;;9.32;4.38;;;;;;;;;;10286169;28;20087;-66
2023/10/19 04:29:57;;;;;;;6.95;3.58;;;;;;;;;;10295692;28;20064;-66
2023/10/19 04:34:58;;;;;;;4.40;3.78;;;;;;;;;;10292219;28;20072;-65
2023/10/19 04:40:00;;;;;;;4.93;3.05;;;;;;;;;;10293344;28;20068;-65
2023/10/19 04:44:59;;;;;;;12.50;3.40;;;;;;;;;;10289919;28;20065;-66
2023/10/19 04:49:57;;;;;;;5.57;3.40;;;;;;;;;;10289360;28;20061;-66
2023/10/19 04:54:55;;;;;;;5.28;2.97;;;;;;;;;;10287017;28;20087;-66
2023/10/19 04:59:55;;;;;;;6.95;3.03;;;;;;;;;;10290633;28;20072;-66
2023/10/19 05:04:53;;;;;;;6.93;3.80;;;;;;;;;;10268612;28;20071;-65
2023/10/19 05:09:53;;;;;;;6.00;2.85;;;;;;;;;;10279056;28;20084;-66
2023/10/19 05:14:52;;;;;;;7.13;4.45;;;;;;;;;;10286448;28;20084;-65
2023/10/19 05:19:51;;;;;;;5.32;3.00;;;;;;;;;;10283363;28;20569;-64
2023/10/19 05:24:50;;;;;;;5.15;2.63;;;;;;;;;;10291853;28;20060;-65
2023/10/19 05:29:48;;;;;;;6.50;2.90;;;;;;;;;;10294311;28;20510;-66
2023/10/19 05:34:47;;;;;;;3.47;2.70;;;;;;;;;;10290653;28;20080;-66
2023/10/19 05:39:46;;;;;;;4.20;3.38;;;;;;;;;;10291998;28;20080;-66
2023/10/19 05:44:45;;;;;;;3.42;3.00;;;;;;;;;;10291904;28;20425;-65
2023/10/19 05:50:03;;;;;;;5.60;3.40;;;;;;;;;;10291084;28;20060;-66
2023/10/19 05:55:24;;;;;;;4.80;3.33;;;;;;;;;;10291796;28;20076;-65
2023/10/19 06:00:42;;;;;;;7.68;3.50;;;;;;;;;;10291691;28;20076;-66
2023/10/19 06:06:00;;;;;;;6.75;3.33;;;;;;;;;;10291430;28;20071;-65
2023/10/19 06:11:20;;;;;;;5.32;3.33;;;;;;;;;;10291471;28;20087;-66
2023/10/19 06:16:37;;;;;;;3.78;3.45;;;;;;;;;;10290394;28;20076;-66
2023/10/19 06:21:55;;;;;;;7.57;3.25;;;;;;;;;;10291480;28;20071;-65
2023/10/19 06:27:15;;;;;;;3.70;3.40;;;;;;;;;;10290488;28;20072;-65
2023/10/19 06:32:33;;;;;;;17.58;8.70;;;;;;;;;;10286031;28;20060;-65
2023/10/19 06:37:51;;;;;;;20.45;12.00;;;;;;;;;;10287533;28;20087;-65
2023/10/19 06:43:11;;;;;;;28.13;14.77;;;;;;;;;;10290151;28;20092;-65
2023/10/19 06:48:29;;;;;;;17.50;10.77;;;;;;;;;;10289674;28;20084;-66
2023/10/19 06:53:47;;;;;;;11.98;9.02;;;;;;;;;;10283225;28;20522;-66
2023/10/19 06:59:07;;;;;;;11.65;6.05;;;;;;;;;;10269244;28;20061;-66
2023/10/19 07:04:26;;;;;;;6.60;4.38;;;;;;;;;;10287436;28;20080;-66
2023/10/19 07:09:43;;;;;;;4.80;3.88;;;;;;;;;;10287270;28;20083;-67
2023/10/19 07:15:03;;;;;;;6.00;3.78;;;;;;;;;;10270984;28;20087;-67
2023/10/19 07:20:27;;;;;;;6.80;4.40;;;;;;;;;;10288178;28;20081;-65
2023/10/19 07:25:45;;;;;;;7.28;4.43;;;;;;;;;;10295700;28;20075;-65
2023/10/19 07:31:10;;;;;;;5.43;4.43;;;;;;;;;;10278206;28;20499;-66
2023/10/19 07:36:28;;;;;;;5.10;4.60;;;;;;;;;;10284020;28;20081;-65
2023/10/19 07:41:46;;;;;;;6.28;4.95;;;;;;;;;;10282072;28;20069;-64
2023/10/19 07:46:59;;;;;;;5.75;5.25;;;;;;;;;;10289139;28;20061;-65
2023/10/19 07:51:59;;;;;;;7.03;6.05;;;;;;;;;;10291944;28;20072;-66
2023/10/19 07:56:57;;;;;;;8.77;6.68;;;;;;;;;;10291538;28;20079;-66
2023/10/19 08:01:56;;;;;;;6.40;5.80;;;;;;;;;;10291318;28;20067;-66
2023/10/19 08:06:56;;;;;;;6.25;5.25;;;;;;;;;;10290600;28;20072;-66
2023/10/19 08:11:56;;;;;;;5.38;4.95;;;;;;;;;;10292228;28;20092;-65
2023/10/19 08:16:56;;;;;;;8.75;6.00;;;;;;;;;;10283638;28;20076;-66
2023/10/19 08:21:56;;;;;;;7.60;5.65;;;;;;;;;;10280366;28;20072;-66
2023/10/19 08:26:55;;;;;;;5.82;5.22;;;;;;;;;;10292432;28;20091;-65
2023/10/19 08:31:53;;;;;;;5.40;4.82;;;;;;;;;;10291464;28;20068;-65
2023/10/19 08:36:51;;;;;;;7.80;5.40;;;;;;;;;;10283744;28;20080;-67
2023/10/19 08:41:53;;;;;;;10.07;6.35;;;;;;;;;;10273312;28;20068;-65
2023/10/19 08:46:51;;;;;;;6.03;4.95;;;;;;;;;;10290496;28;20100;-66
2023/10/19 08:51:52;;;;;;;7.15;5.00;;;;;;;;;;10289219;28;20068;-67
2023/10/19 08:56:52;;;;;;;6.68;5.03;;;;;;;;;;10290483;28;20080;-65
2023/10/19 09:01:50;;;;;;;5.72;5.10;;;;;;;;;;10292680;28;20064;-66
2023/10/19 09:06:49;;;;;;;7.57;5.90;;;;;;;;;;10291286;28;20545;-67
2023/10/19 09:11:47;;;;;;;6.85;6.20;;;;;;;;;;10291078;28;20073;-66
2023/10/19 09:16:57;;;;;;;7.70;5.63;;;;;;;;;;10292850;28;20087;-66
2023/10/19 09:21:55;;;;;;;6.68;5.70;;;;;;;;;;10288469;28;20533;-66
2023/10/19 09:26:53;;;;;;;6.97;5.78;;;;;;;;;;10290431;28;20061;-66
2023/10/19 09:31:54;;;;;;;8.50;5.28;;;;;;;;;;10290199;28;20079;-66
2023/10/19 09:36:54;;;;;;;6.05;5.30;;;;;;;;;;10288021;28;20079;-66
2023/10/19 09:41:53;;;;;;;6.03;5.15;;;;;;;;;;10289247;28;20083;-66
2023/10/19 09:46:54;;;;;;;7.60;4.97;;;;;;;;;;10290458;28;20087;-66
2023/10/19 09:51:55;;;;;;;5.25;4.30;;;;;;;;;;10288430;28;20075;-66
2023/10/19 09:57:02;;;;;;;5.65;4.38;;;;;;;;;;10286043;28;20081;-66
2023/10/19 10:02:05;;;;;;;6.43;4.53;;;;;;;;;;10287267;28;20069;-66
2023/10/19 10:07:07;;;;;;;5.95;3.80;;;;;;;;;;10285759;28;20077;-66
2023/10/19 10:12:16;;;;;;;6.75;3.83;;;;;;;;;;10288258;28;20077;-66
2023/10/19 10:17:19;;;;;;;3.70;2.97;;;;;;;;;;10288648;28;20092;-66
2023/10/19 10:22:22;;;;;;;9.63;4.38;;;;;;;;;;10289148;28;20080;-66
2023/10/19 10:27:20;;;;;;;3.38;3.08;;;;;;;;;;10286722;28;20080;-66
2023/10/19 10:32:33;;;;;;;4.07;2.85;;;;;;;;;;10287624;28;20068;-65
2023/10/19 10:37:37;;;;;;;5.45;3.05;;;;;;;;;;10287993;28;20110;-65
2023/10/19 10:42:41;;;;;;;5.82;3.20;;;;;;;;;;10287570;28;20521;-65
2023/10/19 10:47:45;;;;;;;6.75;3.88;;;;;;;;;;10288747;28;20752;-66
2023/10/19 10:52:45;;;;;;;7.63;3.60;;;;;;;;;;10289048;28;20079;-66
2023/10/19 10:57:44;;;;;;;5.60;3.10;;;;;;;;;;10286041;28;20083;-66
2023/10/19 11:02:43;;;;;;;3.42;2.90;;;;;;;;;;10288942;28;20087;-66
2023/10/19 11:07:42;;;;;;;6.13;2.58;;;;;;;;;;10286721;28;20072;-66
2023/10/19 11:12:41;;;;;;;5.20;2.15;;;;;;;;;;10287403;28;20068;-66
2023/10/19 11:17:43;;;;;;;5.85;2.45;;;;;;;;;;10285782;28;20076;-66
2023/10/19 11:22:48;;;;;;;2.60;2.33;;;;;;;;;;10287359;28;20303;-66
2023/10/19 11:27:48;;;;;;;3.40;2.40;;;;;;;;;;10287882;28;20080;-66
2023/10/19 11:32:46;;;;;;;3.33;2.30;;;;;;;;;;10287172;28;20072;-66
2023/10/19 11:37:48;;;;;;;3.45;2.60;;;;;;;;;;10287744;28;20079;-66
2023/10/19 11:42:48;;;;;;;4.68;3.33;;;;;;;;;;10286344;28;20081;-67
2023/10/19 11:47:46;;;;;;;4.22;2.58;;;;;;;;;;10284057;28;20069;-65
2023/10/19 11:52:46;;;;;;;3.70;2.50;;;;;;;;;;10285151;28;20072;-67
2023/10/19 11:57:44;;;;;;;3.38;2.63;;;;;;;;;;10287257;28;20099;-66
2023/10/19 12:02:44;;;;;;;2.65;2.40;;;;;;;;;;10287643;28;20075;-67
2023/10/19 12:07:45;;;;;;;5.25;2.20;;;;;;;;;;10291849;28;20073;-65
2023/10/19 12:12:46;;;;;;;5.68;2.70;;;;;;;;;;10291187;28;20521;-65
2023/10/19 12:18:01;;;;;;;3.38;2.88;;;;;;;;;;10290503;28;20077;-66
2023/10/19 12:23:00;;;;;;;10.23;3.67;;;;;;;;;;10291069;28;20477;-67
2023/10/19 12:27:59;;;;;;;4.85;2.90;;;;;;;;;;10295802;28;20068;-66
2023/10/19 12:32:57;;;;;;;3.08;2.67;;;;;;;;;;10292862;28;20498;-66
2023/10/19 12:37:57;;;;;;;4.65;3.15;;;;;;;;;;10288938;28;20077;-67
2023/10/19 12:42:57;;;;;;;6.85;3.88;;;;;;;;;;10294249;28;20079;-67
2023/10/19 12:47:55;;;;;;;10.48;3.05;;;;;;;;;;10291024;28;20076;-67
2023/10/19 12:52:55;;;;;;;3.55;3.20;;;;;;;;;;10291395;28;20514;-66
2023/10/19 12:57:56;;;;;;;4.32;3.60;;;;;;;;;;10288655;28;20081;-66
2023/10/19 13:02:59;;;;;;;5.90;3.63;;;;;;;;;;10292145;28;20076;-66
2023/10/19 13:07:59;;;;;;;8.35;3.85;;;;;;;;;;10290607;28;20081;-66
2023/10/19 13:12:58;;;;;;;7.72;4.03;;;;;;;;;;10291537;28;20069;-66
2023/10/19 13:17:56;;;;;;;7.78;3.55;;;;;;;;;;10290151;28;20526;-66
2023/10/19 13:22:56;;;;;;;6.43;3.63;;;;;;;;;;10291057;28;20079;-66
2023/10/19 13:27:54;;;;;;;10.73;4.07;;;;;;;;;;10290914;28;20091;-66
2023/10/19 13:32:53;;;;;;;8.93;3.30;;;;;;;;;;10293083;28;20464;-66
2023/10/19 13:37:52;;;;;;;4.50;3.20;;;;;;;;;;10290268;28;20074;-67
2023/10/19 13:42:52;;;;;;;4.55;2.85;;;;;;;;;;10293658;28;20068;-66
2023/10/19 13:47:54;;;;;;;3.20;2.90;;;;;;;;;;10292398;28;20076;-66
2023/10/19 13:52:56;;;;;;;3.58;2.63;;;;;;;;;;10287016;28;20076;-66
2023/10/19 13:57:55;;;;;;;7.10;3.58;;;;;;;;;;10290035;28;20162;-66
2023/10/19 14:02:53;;;;;;;7.18;3.92;;;;;;;;;;10289203;28;20087;-66
2023/10/19 14:07:54;;;;;;;5.65;3.13;;;;;;;;;;10290369;28;20083;-67
2023/10/19 14:12:52;;;;;;;4.72;3.63;;;;;;;;;;10293884;28;20092;-66
2023/10/19 14:17:52;;;;;;;4.82;2.70;;;;;;;;;;10287817;28;20077;-66
2023/10/19 14:22:50;;;;;;;15.13;9.00;;;;;;;;;;10278257;28;20068;-66
2023/10/19 14:27:51;;;;;;;5.07;3.40;;;;;;;;;;10284232;28;20071;-66
2023/10/19 14:32:49;;;;;;;5.03;3.35;;;;;;;;;;10277741;28;20072;-66
2023/10/19 14:37:48;;;;;;;4.35;2.88;;;;;;;;;;10273224;28;20076;-66
2023/10/19 14:42:47;;;;;;;5.78;3.38;;;;;;;;;;10283890;28;20069;-66
2023/10/19 14:47:50;;;;;;;11.20;4.82;;;;;;;;;;10287934;28;20537;-66
2023/10/19 14:52:50;;;;;;;10.85;4.63;;;;;;;;;;10286646;28;20076;-66
2023/10/19 14:57:50;;;;;;;12.10;3.95;;;;;;;;;;10290239;28;20072;-66
2023/10/19 15:02:50;;;;;;;15.15;4.38;;;;;;;;;;10290560;28;20076;-66
2023/10/19 15:07:52;;;;;;;15.65;5.47;;;;;;;;;;10288299;28;20061;-65
2023/10/19 15:12:50;;;;;;;9.77;4.20;;;;;;;;;;10283090;28;20073;-66
2023/10/19 15:17:52;;;;;;;6.15;4.10;;;;;;;;;;10279703;28;20075;-66
2023/10/19 15:22:50;;;;;;;6.47;4.57;;;;;;;;;;10284708;28;20075;-67
2023/10/19 15:27:49;;;;;;;7.18;5.13;;;;;;;;;;10288245;28;20361;-67
2023/10/19 15:32:47;;;;;;;8.60;5.18;;;;;;;;;;10283509;28;20544;-67
2023/10/19 15:37:48;;;;;;;22.00;6.03;;;;;;;;;;10286396;28;20072;-67
2023/10/19 15:42:46;;;;;;;6.38;5.05;;;;;;;;;;10295066;28;20080;-66
2023/10/19 15:47:45;;;;;;;10.48;4.43;;;;;;;;;;10296568;28;20076;-67
2023/10/19 15:52:44;;;;;;;9.95;3.35;;;;;;;;;;10293095;28;20077;-67
2023/10/19 15:57:44;;;;;;;6.55;4.60;;;;;;;;;;10279023;28;20080;-66
2023/10/19 16:02:43;;;;;;;10.40;6.25;;;;;;;;;;10293317;28;20072;-67
2023/10/19 16:07:41;;;;;;;7.30;5.07;;;;;;;;;;10295475;28;20337;-66
2023/10/19 16:12:40;;;;;;;6.10;4.22;;;;;;;;;;10293202;28;20073;-67
2023/10/19 16:17:40;;;;;;;7.85;3.42;;;;;;;;;;10295181;28;20084;-67
2023/10/19 16:22:39;;;;;;;8.52;3.72;;;;;;;;;;10291431;28;20084;-67
2023/10/19 16:27:38;;;;;;;3.83;3.53;;;;;;;;;;10288884;28;20095;-66
2023/10/19 16:32:37;;;;;;;5.68;2.88;;;;;;;;;;10283223;28;20068;-67
2023/10/19 16:37:37;;;;;;;5.18;3.53;;;;;;;;;;10290948;28;20072;-65
2023/10/19 16:42:36;;;;;;;6.28;3.80;;;;;;;;;;10292463;28;20078;-65
2023/10/19 16:47:34;;;;;;;6.30;3.50;;;;;;;;;;10294626;28;20080;-67
2023/10/19 16:52:33;;;;;;;8.43;4.57;;;;;;;;;;10290351;28;20071;-64
2023/10/19 16:57:33;;;;;;;4.88;3.38;;;;;;;;;;10290399;28;20079;-66
2023/10/19 17:02:32;;;;;;;5.75;3.13;;;;;;;;;;10287269;28;20079;-66
2023/10/19 17:07:31;;;;;;;3.97;2.65;;;;;;;;;;10288799;28;20095;-66
2023/10/19 17:12:35;;;;;;;6.13;3.72;;;;;;;;;;10291020;28;20103;-67
2023/10/19 17:17:33;;;;;;;7.78;3.63;;;;;;;;;;10275668;28;20092;-66
2023/10/19 17:22:32;;;;;;;4.50;3.50;;;;;;;;;;10284336;28;20083;-66
2023/10/19 17:27:30;;;;;;;5.35;4.85;;;;;;;;;;10289048;28;20080;-67
2023/10/19 17:32:30;;;;;;;6.45;5.82;;;;;;;;;;10286546;28;20540;-66
2023/10/19 17:37:28;;;;;;;7.85;5.60;;;;;;;;;;10291746;28;20080;-67
2023/10/19 17:42:28;;;;;;;9.07;4.28;;;;;;;;;;10288142;28;20068;-66
2023/10/19 17:47:27;;;;;;;10.57;3.97;;;;;;;;;;10286526;28;20491;-66
2023/10/19 17:52:27;;;;;;;6.03;3.95;;;;;;;;;;10287891;28;20060;-66
2023/10/19 17:57:25;;;;;;;10.48;5.60;;;;;;;;;;10286720;28;20077;-66
2023/10/19 18:02:24;;;;;;;13.80;6.03;;;;;;;;;;10288118;28;20068;-66
2023/10/19 18:07:23;;;;;;;7.63;5.60;;;;;;;;;;10288004;28;20084;-66
2023/10/19 18:12:23;;;;;;;3.53;3.17;;;;;;;;;;10283023;28;20064;-65
2023/10/19 18:17:23;;;;;;;4.53;3.72;;;;;;;;;;10282506;28;20515;-66
2023/10/19 18:22:21;;;;;;;8.30;3.58;;;;;;;;;;10282032;28;20083;-67
2023/10/19 18:27:19;;;;;;;5.97;3.78;;;;;;;;;;10285663;28;20071;-66
2023/10/19 18:32:22;;;;;;;3.85;3.42;;;;;;;;;;10268796;28;20491;-65
2023/10/19 18:37:20;;;;;;;6.30;3.85;;;;;;;;;;10287365;28;20087;-65
2023/10/19 18:42:18;;;;;;;4.18;3.72;;;;;;;;;;10288869;28;20529;-67
2023/10/19 18:47:17;;;;;;;4.32;3.90;;;;;;;;;;10285060;28;20068;-67
2023/10/19 18:52:18;;;;;;;4.40;3.47;;;;;;;;;;10288057;28;20462;-65
2023/10/19 18:57:16;;;;;;;4.38;3.97;;;;;;;;;;10271955;28;20064;-67
2023/10/19 19:02:15;;;;;;;6.57;3.92;;;;;;;;;;10282816;28;20073;-64
2023/10/19 19:07:13;;;;;;;6.13;3.78;;;;;;;;;;10284219;28;20073;-66
2023/10/19 19:12:13;;;;;;;4.90;3.80;;;;;;;;;;10284416;28;20122;-66
2023/10/19 19:17:11;;;;;;;8.27;3.72;;;;;;;;;;10286984;28;20083;-66
2023/10/19 19:22:09;;;;;;;5.70;3.85;;;;;;;;;;10290268;28;20503;-66
2023/10/19 19:27:10;;;;;;;3.72;3.42;;;;;;;;;;10289552;28;20081;-66
2023/10/19 19:32:09;;;;;;;6.35;4.57;;;;;;;;;;10297767;28;20065;-66
2023/10/19 19:37:07;;;;;;;5.18;4.10;;;;;;;;;;10286941;28;20498;-67
2023/10/19 19:42:06;;;;;;;4.82;4.43;;;;;;;;;;10293095;28;20095;-65
2023/10/19 19:47:04;;;;;;;7.47;4.20;;;;;;;;;;10294022;28;20459;-65
2023/10/19 19:52:04;;;;;;;6.43;4.40;;;;;;;;;;10295728;28;20064;-66
2023/10/19 19:57:03;;;;;;;6.78;4.35;;;;;;;;;;10288669;28;20068;-66
2023/10/19 20:02:03;;;;;;;4.85;3.83;;;;;;;;;;10286113;28;20080;-66
2023/10/19 20:07:02;;;;;;;5.43;4.93;;;;;;;;;;10292095;28;20063;-67
2023/10/19 20:12:04;;;;;;;4.93;4.32;;;;;;;;;;10283611;28;20068;-65
2023/10/19 20:17:02;;;;;;;12.20;6.70;;;;;;;;;;10292217;28;20073;-67
2023/10/19 20:22:00;;;;;;;12.27;6.55;;;;;;;;;;10284771;28;20080;-66
2023/10/19 20:26:59;;;;;;;13.32;5.60;;;;;;;;;;10294075;28;20086;-67
2023/10/19 20:31:58;;;;;;;6.25;5.00;;;;;;;;;;10291084;28;20459;-66
2023/10/19 20:36:57;;;;;;;5.32;4.28;;;;;;;;;;10292295;28;20073;-66
2023/10/19 20:41:55;;;;;;;4.80;4.32;;;;;;;;;;10288582;28;20083;-66
2023/10/19 20:46:53;;;;;;;4.40;3.90;;;;;;;;;;10292927;28;20072;-67
2023/10/19 20:51:53;;;;;;;4.95;4.45;;;;;;;;;;10289839;28;20072;-67
2023/10/19 20:56:51;;;;;;;4.28;3.83;;;;;;;;;;10287136;28;20083;-67
2023/10/19 21:01:49;;;;;;;6.55;4.75;;;;;;;;;;10286918;28;20076;-67
2023/10/19 21:06:48;;;;;;;6.55;4.20;;;;;;;;;;10289447;28;20510;-67
2023/10/19 21:11:47;;;;;;;7.68;4.80;;;;;;;;;;10290130;28;20087;-67
2023/10/19 21:16:45;;;;;;;5.28;4.03;;;;;;;;;;10291372;28;20076;-65
2023/10/19 21:21:44;;;;;;;6.47;4.90;;;;;;;;;;10287035;28;20079;-66
2023/10/19 21:26:42;;;;;;;6.18;4.38;;;;;;;;;;10290413;28;20061;-66
2023/10/19 21:31:43;;;;;;;8.57;5.07;;;;;;;;;;10290857;28;20087;-66
2023/10/19 21:36:41;;;;;;;5.93;4.93;;;;;;;;;;10291400;28;20087;-66
2023/10/19 21:41:39;;;;;;;5.28;4.78;;;;;;;;;;10291305;28;20099;-67
2023/10/19 21:46:37;;;;;;;5.43;4.82;;;;;;;;;;10292542;28;20069;-66
2023/10/19 21:51:37;;;;;;;8.98;4.57;;;;;;;;;;10290419;28;20080;-66
2023/10/19 21:56:35;;;;;;;6.05;4.45;;;;;;;;;;10289341;28;20078;-66
2023/10/19 22:01:34;;;;;;;6.05;4.60;;;;;;;;;;10290143;28;20084;-66
2023/10/19 22:06:32;;;;;;;9.00;4.15;;;;;;;;;;10290819;28;20068;-66
2023/10/19 22:11:33;;;;;;;4.60;4.10;;;;;;;;;;10286622;28;20068;-65
2023/10/19 22:16:32;;;;;;;6.60;4.57;;;;;;;;;;10287486;28;20079;-65
2023/10/19 22:21:31;;;;;;;7.50;4.32;;;;;;;;;;10289246;28;20529;-67
2023/10/19 22:26:31;;;;;;;6.43;4.78;;;;;;;;;;10287930;28;20478;-66
2023/10/19 22:31:30;;;;;;;10.35;5.07;;;;;;;;;;10288289;28;20095;-67
2023/10/19 22:36:29;;;;;;;7.97;4.38;;;;;;;;;;10287927;28;20525;-67
2023/10/19 22:41:27;;;;;;;6.15;4.65;;;;;;;;;;10287320;28;20080;-67
2023/10/19 22:46:26;;;;;;;4.57;4.15;;;;;;;;;;10288131;28;20071;-67
2023/10/19 22:51:26;;;;;;;5.78;4.45;;;;;;;;;;10288648;28;20074;-67
2023/10/19 22:56:24;;;;;;;5.88;3.92;;;;;;;;;;10287249;28;20078;-67
2023/10/19 23:01:23;;;;;;;5.95;4.50;;;;;;;;;;10285809;28;20095;-67
2023/10/19 23:06:25;;;;;;;6.00;4.28;;;;;;;;;;10287153;28;20526;-67
2023/10/19 23:11:28;;;;;;;5.18;4.05;;;;;;;;;;10287449;28;20057;-67
2023/10/19 23:16:31;;;;;;;6.10;4.07;;;;;;;;;;10286838;28;20085;-67
2023/10/19 23:21:32;;;;;;;5.82;3.92;;;;;;;;;;10289548;28;20084;-67
2023/10/19 23:26:32;;;;;;;3.85;3.38;;;;;;;;;;10287063;28;20557;-67
2023/10/19 23:31:33;;;;;;;5.82;4.20;;;;;;;;;;10286505;28;20083;-67
2023/10/19 23:36:31;;;;;;;5.03;3.50;;;;;;;;;;10278482;28;20064;-67
2023/10/19 23:41:30;;;;;;;4.25;3.83;;;;;;;;;;10284645;28;20386;-67
2023/10/19 23:46:30;;;;;;;4.13;3.63;;;;;;;;;;10286464;28;20064;-67
2023/10/19 23:51:28;;;;;;;4.38;3.65;;;;;;;;;;10284541;28;20077;-67
2023/10/19 23:56:27;;;;;;;5.82;4.30;;;;;;;;;;10281264;28;20080;-67
